Alexander, Illinois
Current Conditions -  °F | °C
As of 2:35 AM on Friday 31 Oct 2014 (Local Time) from KIJX Reporting Station
Overcast Overcast  
Wind Chill: 43°   Ceiling: 7000
Heat Index: 46°   Visibility: 7mi
Dew Point: 44°   Wind: 7mph
Humidity: 90%   Direction: 330°NNW
Pressure: 30.1"   Gusts: NA
Location:  39.72°N, 90.04°W
Report Text: KIJX 310735Z AUTO 33006KT 7SM BKN070 OVC080 08/07 A3010 RMK AO2 T00800065
Loading
Personal Weather Stations






























Interactive Weather Map
Tropical Storm Tracking
New forecast layout! Learn more

10-Day Weather Forecast

Advertisements
Track Severe Weather on mobile